createdAt,value
2018-05-17T00:01:09.752Z,16.00
2018-05-17T00:03:37.223Z,18.40
2018-05-17T00:06:04.685Z,14.63
2018-05-17T00:08:32.146Z,16.43
2018-05-17T00:10:59.615Z,16.00
2018-05-17T00:13:27.842Z,16.17
2018-05-17T00:15:55.318Z,15.70
2018-05-17T00:18:22.782Z,16.13
2018-05-17T00:20:50.257Z,16.23
2018-05-17T00:23:17.705Z,22.43
2018-05-17T00:25:45.156Z,22.40
2018-05-17T00:28:12.618Z,17.50
2018-05-17T00:30:40.082Z,22.83
2018-05-17T00:33:07.539Z,20.77
2018-05-17T00:35:34.990Z,17.67
2018-05-17T00:38:02.459Z,24.83
2018-05-17T00:40:30.687Z,18.43
2018-05-17T00:42:58.141Z,19.90
2018-05-17T00:45:25.590Z,21.80
2018-05-17T00:47:53.041Z,21.50
2018-05-17T00:50:20.494Z,19.23
2018-05-17T00:52:59.701Z,30.83
2018-05-17T00:55:27.924Z,17.80
2018-05-17T00:57:55.390Z,18.57
2018-05-17T01:00:22.854Z,25.63
2018-05-17T01:02:50.322Z,21.17
2018-05-17T01:05:17.793Z,22.13
2018-05-17T01:07:45.241Z,22.30
2018-05-17T01:10:12.698Z,20.13
2018-05-17T01:12:40.153Z,18.80
2018-05-17T01:15:07.601Z,21.40
2018-05-17T01:17:35.058Z,21.57
2018-05-17T01:20:02.522Z,27.77
2018-05-17T01:22:29.986Z,16.77
2018-05-17T01:24:57.439Z,21.77
2018-05-17T01:27:24.897Z,19.13
2018-05-17T01:29:52.340Z,17.07
2018-05-17T01:32:19.818Z,16.10
2018-05-17T01:34:47.267Z,25.37
2018-05-17T01:37:26.577Z,22.53
2018-05-17T01:39:54.062Z,18.63
2018-05-17T01:42:21.520Z,19.40
2018-05-17T01:44:48.977Z,21.33
2018-05-17T01:47:16.436Z,15.13
2018-05-17T01:49:43.889Z,18.93
2018-05-17T01:52:11.339Z,26.23
2018-05-17T01:54:38.793Z,17.70
2018-05-17T01:57:06.251Z,22.00
2018-05-17T01:59:33.701Z,18.27
2018-05-17T02:02:01.146Z,17.60
2018-05-17T02:04:28.611Z,21.33
2018-05-17T02:06:56.067Z,17.23
2018-05-17T02:09:23.533Z,20.07
2018-05-17T02:11:50.994Z,15.63
2018-05-17T02:14:18.462Z,15.90
2018-05-17T02:16:45.914Z,14.00
2018-05-17T02:19:13.380Z,13.93
2018-05-17T02:21:40.835Z,20.90
2018-05-17T02:24:08.287Z,14.33
2018-05-17T02:26:35.750Z,17.57
2018-05-17T02:29:03.217Z,14.87
2018-05-17T02:31:31.448Z,16.87
2018-05-17T02:33:58.907Z,15.77
2018-05-17T02:36:26.355Z,19.27
2018-05-17T02:38:53.818Z,20.17
2018-05-17T02:41:21.278Z,20.10
2018-05-17T02:43:48.737Z,18.33
2018-05-17T02:46:16.190Z,18.23
2018-05-17T02:48:43.650Z,20.87
2018-05-17T02:51:11.097Z,19.80
2018-05-17T02:53:38.564Z,21.50
2018-05-17T02:56:06.020Z,20.40
2018-05-17T02:58:33.477Z,20.30
2018-05-17T03:01:00.939Z,27.53
2018-05-17T03:03:28.398Z,22.97
2018-05-17T03:05:55.854Z,25.00
2018-05-17T03:08:29.617Z,24.83
2018-05-17T03:10:57.073Z,22.80
2018-05-17T03:13:24.529Z,26.37
2018-05-17T03:15:51.983Z,22.63
2018-05-17T03:18:19.433Z,27.07
2018-05-17T03:20:47.655Z,27.30
2018-05-17T03:23:15.114Z,29.83
2018-05-17T03:25:42.578Z,22.87
2018-05-17T03:28:10.035Z,25.53
2018-05-17T03:30:37.493Z,40.87
2018-05-17T03:33:04.958Z,26.23
2018-05-17T03:35:32.403Z,29.33
2018-05-17T03:37:59.889Z,28.33
2018-05-17T03:40:27.337Z,22.87
2018-05-17T03:42:54.797Z,31.53
2018-05-17T03:45:22.260Z,23.53
2018-05-17T03:47:49.717Z,30.37
2018-05-17T03:50:17.186Z,23.30
2018-05-17T03:52:44.651Z,39.20
2018-05-17T03:55:12.899Z,25.17
2018-05-17T03:57:40.334Z,23.67
2018-05-17T04:00:08.565Z,29.07
2018-05-17T04:02:47.881Z,25.33
2018-05-17T04:05:27.986Z,30.10
2018-05-17T04:07:55.447Z,23.97
2018-05-17T04:10:22.909Z,23.87
2018-05-17T04:12:50.377Z,24.53
2018-05-17T04:15:17.821Z,24.00
2018-05-17T04:17:45.285Z,22.00
2018-05-17T04:20:13.510Z,18.20
2018-05-17T04:22:40.973Z,24.07
2018-05-17T04:25:08.432Z,16.23
2018-05-17T04:27:35.891Z,16.90
2018-05-17T04:30:03.346Z,14.73
2018-05-17T04:32:30.796Z,14.40
2018-05-17T04:34:59.022Z,14.77
2018-05-17T04:37:26.482Z,13.40
2018-05-17T04:39:53.929Z,12.97
2018-05-17T04:42:21.385Z,11.93
2018-05-17T04:44:48.834Z,11.23
2018-05-17T04:47:16.524Z,10.87
2018-05-17T04:49:43.989Z,12.10
2018-05-17T04:52:11.434Z,10.10
2018-05-17T04:54:38.895Z,11.07
2018-05-17T04:57:06.345Z,10.50
2018-05-17T04:59:34.557Z,10.07
2018-05-17T05:02:02.771Z,9.67
2018-05-17T05:04:30.246Z,9.67
2018-05-17T05:06:57.682Z,8.73
2018-05-17T05:09:25.526Z,8.33
2018-05-17T05:11:53.731Z,8.30
2018-05-17T05:14:21.177Z,8.43
2018-05-17T05:16:48.630Z,8.37
2018-05-17T05:19:16.183Z,7.77
2018-05-17T05:21:43.650Z,7.63
2018-05-17T05:24:11.102Z,7.50
2018-05-17T05:26:38.561Z,6.70
2018-05-17T05:29:06.001Z,6.10
2018-05-17T05:31:33.560Z,6.40
2018-05-17T05:34:00.921Z,7.17
2018-05-17T05:36:28.368Z,6.50
2018-05-17T05:38:55.815Z,5.90
2018-05-17T05:41:24.036Z,7.20
2018-05-17T05:43:51.498Z,5.83
2018-05-17T05:46:18.945Z,5.80
2018-05-17T05:48:46.408Z,5.30
2018-05-17T05:51:13.851Z,5.20
2018-05-17T05:53:41.300Z,5.93
2018-05-17T05:56:08.750Z,4.90
2018-05-17T05:58:36.215Z,5.23
2018-05-17T06:01:03.659Z,4.83
2018-05-17T06:03:31.102Z,4.97
2018-05-17T06:05:59.325Z,4.20
2018-05-17T06:08:26.837Z,4.10
2018-05-17T06:10:54.253Z,3.77
2018-05-17T06:13:21.703Z,3.47
2018-05-17T06:15:49.154Z,3.80
2018-05-17T06:18:16.609Z,3.90
2018-05-17T06:20:44.062Z,4.63
2018-05-17T06:23:11.522Z,4.33
2018-05-17T06:25:38.969Z,4.30
2018-05-17T06:28:06.439Z,4.10
2018-05-17T06:30:33.892Z,4.50
2018-05-17T06:33:01.349Z,3.13
2018-05-17T06:35:28.807Z,3.57
2018-05-17T06:37:56.257Z,3.90
2018-05-17T06:40:23.723Z,3.17
2018-05-17T06:42:51.183Z,2.90
2018-05-17T06:45:18.641Z,3.43
2018-05-17T06:47:46.076Z,3.50
2018-05-17T06:50:13.542Z,3.17
2018-05-17T06:52:40.990Z,3.27
2018-05-17T06:55:08.446Z,3.03
2018-05-17T06:57:35.931Z,3.20
2018-05-17T07:00:03.373Z,3.00
2018-05-17T07:02:30.843Z,3.10
2018-05-17T07:04:58.282Z,3.43
2018-05-17T07:07:25.743Z,3.07
2018-05-17T07:09:53.202Z,2.63
2018-05-17T07:12:20.670Z,2.90
2018-05-17T07:14:48.119Z,2.60
2018-05-17T07:17:15.573Z,2.93
2018-05-17T07:19:43.033Z,2.80
2018-05-17T07:22:10.498Z,4.33
2018-05-17T07:24:37.950Z,3.00
2018-05-17T07:27:05.421Z,2.70
2018-05-17T07:29:32.870Z,3.10
2018-05-17T07:32:00.326Z,2.60
2018-05-17T07:34:27.788Z,4.13
2018-05-17T07:36:55.243Z,5.17
2018-05-17T07:39:22.707Z,3.50
2018-05-17T07:41:50.163Z,3.10
2018-05-17T07:44:17.634Z,3.27
2018-05-17T07:46:45.136Z,3.03
2018-05-17T07:49:13.337Z,3.07
2018-05-17T07:51:40.788Z,3.10
2018-05-17T07:54:08.253Z,3.40
2018-05-17T07:56:35.708Z,3.37
2018-05-17T07:59:03.148Z,5.40
2018-05-17T08:01:30.601Z,5.50
2018-05-17T08:03:58.062Z,2.90
2018-05-17T08:06:25.530Z,3.40
2018-05-17T08:08:53.006Z,3.70
2018-05-17T08:11:20.478Z,3.80
2018-05-17T08:13:47.934Z,4.80
2018-05-17T08:16:15.390Z,4.43
2018-05-17T08:18:42.841Z,4.50
2018-05-17T08:21:10.285Z,3.90
2018-05-17T08:23:37.738Z,4.30
2018-05-17T08:26:05.194Z,3.80
2018-05-17T08:28:32.647Z,3.90
2018-05-17T08:31:00.247Z,4.50
2018-05-17T08:33:27.626Z,4.23
2018-05-17T08:35:55.105Z,4.13
2018-05-17T08:38:22.564Z,4.30
2018-05-17T08:40:50.027Z,4.27
2018-05-17T08:43:17.471Z,4.20
2018-05-17T08:45:44.957Z,3.93
2018-05-17T08:48:12.573Z,4.17
2018-05-17T08:50:40.046Z,4.20
2018-05-17T08:53:07.511Z,4.50
2018-05-17T08:55:34.969Z,5.10
2018-05-17T08:58:02.413Z,4.37
2018-05-17T09:00:29.858Z,4.90
2018-05-17T09:02:57.314Z,4.40
2018-05-17T09:05:24.774Z,4.40
2018-05-17T09:07:52.478Z,4.37
2018-05-17T09:10:19.928Z,5.00
2018-05-17T09:12:47.374Z,5.17
2018-05-17T09:15:14.838Z,4.63
2018-05-17T09:17:42.290Z,4.30
2018-05-17T09:20:09.792Z,4.37
2018-05-17T09:22:37.197Z,4.80
2018-05-17T09:25:04.649Z,5.27
2018-05-17T09:27:32.110Z,4.87
2018-05-17T09:29:59.558Z,5.10
2018-05-17T09:32:30.762Z,5.30
2018-05-17T09:34:59.244Z,4.37
2018-05-17T09:37:27.614Z,4.10
2018-05-17T09:39:55.050Z,4.10
2018-05-17T09:42:22.502Z,4.37
2018-05-17T09:44:49.958Z,4.70
2018-05-17T09:47:17.422Z,4.37
2018-05-17T09:49:44.868Z,4.50
2018-05-17T09:52:12.320Z,5.77
2018-05-17T09:54:39.770Z,4.60
2018-05-17T09:57:07.262Z,4.77
2018-05-17T09:59:34.716Z,5.10
2018-05-17T10:02:02.159Z,4.60
2018-05-17T10:04:29.634Z,5.07
2018-05-17T10:06:57.078Z,4.77
2018-05-17T10:09:24.521Z,4.80
2018-05-17T10:11:51.981Z,4.30
2018-05-17T10:14:19.426Z,4.27
2018-05-17T10:16:46.903Z,4.63
2018-05-17T10:19:14.354Z,4.70
2018-05-17T10:21:41.819Z,4.57
2018-05-17T10:24:09.261Z,4.50
2018-05-17T10:26:36.715Z,4.40
2018-05-17T10:29:04.157Z,4.00
2018-05-17T10:31:31.616Z,4.87
2018-05-17T10:33:59.070Z,6.47
2018-05-17T10:36:26.526Z,4.60
2018-05-17T10:38:53.970Z,5.30
2018-05-17T10:41:21.445Z,5.10
2018-05-17T10:43:48.918Z,4.57
2018-05-17T10:46:16.387Z,5.07
2018-05-17T10:48:43.839Z,5.43
2018-05-17T10:51:11.278Z,5.47
2018-05-17T10:53:38.733Z,4.93
2018-05-17T10:56:06.188Z,5.10
2018-05-17T10:58:33.657Z,5.43
2018-05-17T11:01:01.111Z,6.20
2018-05-17T11:03:28.566Z,5.50
2018-05-17T11:05:56.027Z,4.63
2018-05-17T11:08:23.473Z,5.53
2018-05-17T11:10:50.929Z,5.97
2018-05-17T11:13:18.397Z,6.53
2018-05-17T11:15:45.852Z,5.60
2018-05-17T11:18:13.301Z,5.30
2018-05-17T11:20:40.772Z,5.80
2018-05-17T11:23:08.230Z,5.60
2018-05-17T11:25:35.711Z,5.90
2018-05-17T11:28:03.161Z,5.10
2018-05-17T11:30:30.597Z,5.23
2018-05-17T11:32:58.075Z,4.40
2018-05-17T11:35:25.501Z,4.80
2018-05-17T11:37:53.059Z,3.90
2018-05-17T11:40:20.506Z,4.30
2018-05-17T11:42:47.964Z,3.40
2018-05-17T11:45:18.210Z,4.20
2018-05-17T11:47:45.666Z,5.03
2018-05-17T11:50:13.129Z,4.07
2018-05-17T11:52:40.569Z,4.60
2018-05-17T11:55:08.021Z,4.73
2018-05-17T11:57:35.475Z,4.40
2018-05-17T12:00:02.921Z,3.83
2018-05-17T12:02:30.365Z,3.77
2018-05-17T12:04:58.591Z,4.70
2018-05-17T12:07:26.084Z,4.83
2018-05-17T12:09:53.494Z,4.17
2018-05-17T12:12:20.937Z,5.57
2018-05-17T12:14:48.397Z,4.50
2018-05-17T12:17:15.857Z,3.80
2018-05-17T12:19:43.295Z,5.87
2018-05-17T12:22:10.746Z,3.97
2018-05-17T12:24:38.218Z,4.20
2018-05-17T12:27:05.669Z,4.80
2018-05-17T12:29:33.125Z,4.23
2018-05-17T12:32:00.614Z,4.83
2018-05-17T12:34:28.047Z,4.27
2018-05-17T12:36:55.490Z,4.87
2018-05-17T12:39:22.947Z,4.80
2018-05-17T12:41:50.408Z,6.20
2018-05-17T12:44:17.870Z,5.83
2018-05-17T12:46:45.322Z,6.40
2018-05-17T12:49:12.781Z,7.10
2018-05-17T12:51:40.239Z,7.20
2018-05-17T12:54:07.698Z,7.83
2018-05-17T12:56:35.148Z,7.80
2018-05-17T12:59:02.623Z,8.00
2018-05-17T13:01:30.074Z,7.13
2018-05-17T13:03:57.523Z,7.20
2018-05-17T13:06:24.979Z,7.60
2018-05-17T13:08:52.427Z,7.97
2018-05-17T13:11:19.887Z,6.83
2018-05-17T13:13:47.336Z,6.37
2018-05-17T13:16:15.553Z,6.60
2018-05-17T13:18:42.998Z,6.13
2018-05-17T13:21:10.459Z,6.13
2018-05-17T13:23:37.922Z,5.53
2018-05-17T13:26:05.388Z,6.93
2018-05-17T13:28:32.841Z,6.53
2018-05-17T13:31:00.294Z,7.23
2018-05-17T13:33:27.755Z,6.80
2018-05-17T13:35:55.203Z,6.60
2018-05-17T13:38:22.665Z,10.03
2018-05-17T13:40:50.111Z,6.43
2018-05-17T13:43:17.557Z,6.30
2018-05-17T13:45:45.009Z,5.97
2018-05-17T13:48:12.471Z,6.30
2018-05-17T13:50:39.934Z,6.13
2018-05-17T13:53:07.394Z,5.67
2018-05-17T13:55:34.875Z,6.37
2018-05-17T13:58:02.316Z,5.63
2018-05-17T14:00:29.764Z,3.90
2018-05-17T14:02:57.245Z,3.63
2018-05-17T14:05:24.666Z,2.90
2018-05-17T14:07:52.142Z,2.83
2018-05-17T14:10:19.617Z,3.33
2018-05-17T14:12:47.066Z,2.57
2018-05-17T14:15:14.552Z,4.10
2018-05-17T14:17:41.972Z,3.30
2018-05-17T14:20:09.430Z,3.70
2018-05-17T14:22:36.880Z,3.47
2018-05-17T14:25:04.327Z,4.23
2018-05-17T14:27:31.779Z,3.50
2018-05-17T14:29:59.226Z,3.00
2018-05-17T14:32:26.670Z,3.80
2018-05-17T14:34:54.896Z,2.93
2018-05-17T14:37:22.353Z,4.10
2018-05-17T14:39:49.803Z,3.60
2018-05-17T14:42:17.270Z,3.47
2018-05-17T14:44:44.729Z,3.53
2018-05-17T14:47:12.178Z,4.43
2018-05-17T14:49:39.640Z,4.40
2018-05-17T14:52:07.450Z,3.70
2018-05-17T14:54:35.662Z,4.53
2018-05-17T14:57:03.114Z,3.90
2018-05-17T14:59:30.549Z,4.93
2018-05-17T15:01:58.794Z,5.80
2018-05-17T15:04:26.233Z,5.10
2018-05-17T15:06:53.675Z,6.10
2018-05-17T15:09:21.124Z,5.33
2018-05-17T15:11:48.575Z,8.57
2018-05-17T15:14:16.031Z,6.63
2018-05-17T15:16:43.494Z,7.53
2018-05-17T15:19:11.086Z,6.97
2018-05-17T15:21:38.425Z,6.07
2018-05-17T15:24:05.883Z,8.70
2018-05-17T15:26:33.325Z,7.17
2018-05-17T15:29:00.789Z,7.07
2018-05-17T15:31:28.249Z,6.43
2018-05-17T15:33:55.755Z,6.40
2018-05-17T15:36:23.194Z,6.63
2018-05-17T15:38:50.649Z,6.97
2018-05-17T15:41:18.117Z,7.37
2018-05-17T15:43:45.553Z,8.17
2018-05-17T15:46:13.022Z,8.27
2018-05-17T15:48:40.462Z,9.60
2018-05-17T15:51:07.918Z,9.13
2018-05-17T15:53:35.372Z,8.80
2018-05-17T15:56:02.809Z,9.23
2018-05-17T15:58:30.277Z,10.47
2018-05-17T16:00:58.498Z,10.77
2018-05-17T16:03:26.728Z,9.53
2018-05-17T16:05:54.174Z,9.27
2018-05-17T16:08:21.634Z,7.97
2018-05-17T16:10:49.079Z,8.40
2018-05-17T16:13:16.547Z,8.30
2018-05-17T16:15:44.029Z,10.37
2018-05-17T16:18:11.465Z,9.20
2018-05-17T16:20:38.945Z,9.60
2018-05-17T16:23:06.398Z,10.30
2018-05-17T16:25:33.858Z,10.07
2018-05-17T16:28:01.323Z,10.80
2018-05-17T16:30:28.790Z,9.67
2018-05-17T16:32:56.248Z,10.30
2018-05-17T16:35:23.701Z,10.33
2018-05-17T16:37:52.670Z,9.33
2018-05-17T16:40:20.121Z,9.90
2018-05-17T16:42:47.602Z,10.10
2018-05-17T16:45:15.115Z,9.43
2018-05-17T16:47:42.585Z,9.53
2018-05-17T16:50:10.037Z,10.87
2018-05-17T16:52:37.600Z,10.20
2018-05-17T16:55:04.954Z,10.40
2018-05-17T16:57:32.410Z,10.13
2018-05-17T16:59:59.878Z,10.17
2018-05-17T17:02:28.099Z,10.97
2018-05-17T17:04:55.643Z,11.23
2018-05-17T17:07:23.503Z,13.03
2018-05-17T17:09:51.557Z,12.80
2018-05-17T17:12:20.297Z,12.83
2018-05-17T17:14:48.357Z,14.40
2018-05-17T17:17:16.297Z,13.90
2018-05-17T17:19:44.738Z,12.60
2018-05-17T17:22:12.743Z,15.00
2018-05-17T17:24:41.091Z,15.70
2018-05-17T17:27:09.674Z,15.07
2018-05-17T17:29:37.380Z,15.70
2018-05-17T17:32:05.950Z,15.90
2018-05-17T17:34:34.476Z,17.47
2018-05-17T17:37:01.974Z,18.37
2018-05-17T17:39:29.431Z,17.43
2018-05-17T17:41:56.899Z,19.50
2018-05-17T17:44:24.362Z,20.37
2018-05-17T17:46:51.820Z,18.27
2018-05-17T17:49:19.289Z,20.90
2018-05-17T17:51:46.761Z,23.67
2018-05-17T17:54:14.990Z,21.20
2018-05-17T17:56:43.218Z,21.70
2018-05-17T17:59:11.455Z,24.37
2018-05-17T18:01:38.926Z,24.77
2018-05-17T18:04:06.437Z,26.13
2018-05-17T18:06:33.882Z,27.97
2018-05-17T18:09:01.331Z,34.30
2018-05-17T18:11:28.825Z,24.43
2018-05-17T18:13:56.274Z,25.23
2018-05-17T18:16:24.574Z,23.57
2018-05-17T18:18:52.026Z,24.03
2018-05-17T18:21:19.485Z,28.63
2018-05-17T18:23:46.947Z,26.13
2018-05-17T18:26:14.433Z,24.97
2018-05-17T18:28:42.649Z,25.73
2018-05-17T18:31:10.149Z,25.53
2018-05-17T18:33:37.598Z,21.73
2018-05-17T18:36:05.054Z,21.00
2018-05-17T18:38:32.504Z,20.27
2018-05-17T18:40:59.974Z,23.10
2018-05-17T18:43:27.434Z,24.33
2018-05-17T18:45:54.890Z,24.80
2018-05-17T18:48:22.349Z,24.23
2018-05-17T18:50:49.798Z,26.77
2018-05-17T18:53:17.253Z,27.93
2018-05-17T18:55:44.708Z,31.23
2018-05-17T18:58:12.937Z,27.63
2018-05-17T19:00:40.402Z,21.90
2018-05-17T19:03:07.856Z,25.33
2018-05-17T19:05:35.313Z,29.20
2018-05-17T19:08:02.781Z,27.87
2018-05-17T19:10:30.250Z,28.97
2018-05-17T19:12:57.705Z,24.87
2018-05-17T19:15:25.182Z,26.40
2018-05-17T19:17:52.650Z,33.57
2018-05-17T19:20:20.186Z,24.10
2018-05-17T19:22:47.578Z,27.30
2018-05-17T19:25:15.798Z,27.13
2018-05-17T19:27:43.262Z,29.80
2018-05-17T19:30:10.709Z,31.90
2018-05-17T19:32:38.173Z,31.50
2018-05-17T19:35:05.630Z,28.77
2018-05-17T19:37:33.089Z,27.70
2018-05-17T19:40:00.543Z,28.70
2018-05-17T19:42:27.998Z,32.43
2018-05-17T19:44:55.471Z,32.87
2018-05-17T19:47:23.017Z,35.43
2018-05-17T19:49:50.394Z,36.77
2018-05-17T19:52:17.878Z,42.50
2018-05-17T19:54:45.342Z,46.40
2018-05-17T19:57:13.569Z,44.30
2018-05-17T19:59:41.027Z,42.20
2018-05-17T20:02:08.501Z,50.97
2018-05-17T20:04:35.950Z,49.03
2018-05-17T20:07:03.415Z,48.03
2018-05-17T20:09:30.871Z,51.10
2018-05-17T20:11:58.326Z,52.47
2018-05-17T20:14:25.795Z,47.10
2018-05-17T20:16:53.252Z,50.30
2018-05-17T20:19:20.710Z,51.50
2018-05-17T20:21:48.166Z,50.07
2018-05-17T20:24:15.638Z,50.17
2018-05-17T20:26:43.101Z,48.00
2018-05-17T20:29:11.362Z,55.03
2018-05-17T20:31:38.866Z,52.07
2018-05-17T20:34:06.323Z,52.03
2018-05-17T20:36:33.839Z,51.77
2018-05-17T20:39:01.347Z,51.30
2018-05-17T20:41:28.798Z,54.67
2018-05-17T20:43:56.257Z,57.63
2018-05-17T20:46:23.721Z,53.97
2018-05-17T20:48:51.168Z,51.80
2018-05-17T20:51:18.634Z,57.33
2018-05-17T20:53:46.089Z,53.67
2018-05-17T20:56:13.539Z,52.33
2018-05-17T20:58:41.002Z,52.03
2018-05-17T21:01:08.462Z,53.87
2018-05-17T21:03:35.917Z,51.20
2018-05-17T21:06:03.361Z,53.20
2018-05-17T21:08:41.953Z,51.53
2018-05-17T21:11:10.182Z,58.67
2018-05-17T21:13:37.632Z,57.37
2018-05-17T21:16:05.094Z,54.23
2018-05-17T21:18:32.560Z,60.47
2018-05-17T21:21:00.089Z,57.63
2018-05-17T21:23:28.349Z,59.57
2018-05-17T21:25:55.839Z,59.57
2018-05-17T21:28:23.342Z,58.33
2018-05-17T21:30:51.574Z,58.67
2018-05-17T21:33:19.057Z,60.27
2018-05-17T21:35:46.533Z,53.97
2018-05-17T21:38:14.779Z,58.10
2018-05-17T21:40:42.275Z,59.20
2018-05-17T21:43:10.549Z,54.83
2018-05-17T21:45:38.799Z,57.07
2018-05-17T21:48:06.262Z,63.07
2018-05-17T21:50:33.784Z,60.33
2018-05-17T21:53:01.269Z,57.67
2018-05-17T21:55:28.787Z,56.27
2018-05-17T21:57:57.378Z,53.30
2018-05-17T22:00:24.857Z,56.47
2018-05-17T22:02:52.361Z,56.17
2018-05-17T22:05:20.589Z,61.13
2018-05-17T22:07:48.059Z,57.63
2018-05-17T22:10:15.542Z,60.13
2018-05-17T22:12:43.002Z,58.77
2018-05-17T22:15:11.234Z,63.37
2018-05-17T22:17:38.689Z,67.13
2018-05-17T22:20:07.028Z,64.37
2018-05-17T22:22:35.321Z,66.87
2018-05-17T22:25:03.406Z,64.53
2018-05-17T22:27:30.971Z,66.30
2018-05-17T22:29:58.430Z,56.47
2018-05-17T22:32:25.922Z,59.47
2018-05-17T22:34:53.450Z,71.33
2018-05-17T22:37:20.923Z,60.07
2018-05-17T22:39:48.369Z,65.67
2018-05-17T22:42:15.833Z,64.83
2018-05-17T22:44:43.299Z,61.70
2018-05-17T22:47:10.762Z,65.47
2018-05-17T22:49:38.224Z,68.77
2018-05-17T22:52:05.710Z,63.73
2018-05-17T22:54:33.945Z,66.33
2018-05-17T22:57:12.213Z,64.03
2018-05-17T22:59:39.678Z,57.03
2018-05-17T23:02:07.163Z,60.60
2018-05-17T23:04:34.631Z,63.53
2018-05-17T23:07:02.094Z,59.47
2018-05-17T23:09:29.576Z,62.53
2018-05-17T23:11:57.798Z,70.07
2018-05-17T23:14:25.274Z,62.33
2018-05-17T23:16:52.722Z,65.70
2018-05-17T23:19:20.173Z,57.80
2018-05-17T23:21:47.634Z,59.07
2018-05-17T23:24:15.087Z,66.40
2018-05-17T23:26:42.545Z,59.07
2018-05-17T23:29:10.010Z,65.33
2018-05-17T23:31:37.489Z,65.90
2018-05-17T23:34:04.950Z,73.60
2018-05-17T23:36:32.401Z,70.77
2018-05-17T23:38:59.865Z,67.90
2018-05-17T23:41:36.157Z,70.77
2018-05-17T23:44:03.598Z,67.33
2018-05-17T23:46:31.828Z,71.03
2018-05-17T23:48:59.284Z,65.10
2018-05-17T23:51:26.749Z,68.47
2018-05-17T23:53:54.198Z,69.97
2018-05-17T23:56:21.673Z,66.73
2018-05-17T23:58:49.133Z,70.57
